Decoded Metar for OINZ (DASHT-E-NAZ in IRAN) (IATA:N/A) | Meteo·Mobile Aviation Weather
aviador You're here:

OINZ Decoded Metar

DASHT-E-NAZ in IRAN
Report Time2019-02-22 14:00:00
UTC Time2019-02-22 14:30:01
Flight Rules vfr VFR
Wind310° at 04 kt
W.Decomp.*RWY 34: 3.4 kt HW 2.2 kt LCW
W.Rank310° ranks 27
Current wind is below 310° avg. (6.8)
Visibility9999 m
Phenomena:N/A
Clouds:N/A
Expected CloudBase > 2,000 ft AGL from Temp-Dew spread
CeilingNone
Temp12°C (ISA -3)
Dew Point07°C (72% RH)
AAT9.9°C
QNH1019 hPa
Density Alt-381 ft
Elevation36 ft
Report Wrong Elevation
Raw Report
OINZ 221400Z 31004KT CAVOK 12/07 Q1019=

Extra information for OINZ:More info

Metar Taf Metar & Taf Last 4 Metars F.Rules Stats Wind Profile Meteogram Temp Stats Airport Information Weather charts Add Link Nearby VenuesMetar ALERT Operation Metar Decoded Social comments